createdAt,value
2022-08-21T00:02:17.212Z,101021.94
2022-08-21T00:07:19.401Z,101008.06
2022-08-21T00:12:21.063Z,101007.41
2022-08-21T00:17:23.476Z,101004.13
2022-08-21T00:22:25.267Z,101005.16
2022-08-21T00:27:26.938Z,100997.31
2022-08-21T00:32:28.695Z,100999.19
2022-08-21T00:37:30.511Z,101007.41
2022-08-21T00:42:33.399Z,100997.06
2022-08-21T00:47:35.061Z,101004.19
2022-08-21T00:52:36.921Z,101000.69
2022-08-21T00:57:44.020Z,101002.66
2022-08-21T01:02:45.748Z,100998.44
2022-08-21T01:07:47.406Z,101009.34
2022-08-21T01:12:49.144Z,101008.72
2022-08-21T01:17:50.786Z,101009.63
2022-08-21T01:22:52.429Z,101013.16
2022-08-21T01:27:54.082Z,101008.91
2022-08-21T01:32:56.106Z,101008.19
2022-08-21T01:37:58.322Z,101014.38
2022-08-21T01:43:00.008Z,101012.66
2022-08-21T01:48:01.740Z,101008.25
2022-08-21T01:53:03.613Z,101010.09
2022-08-21T01:58:05.253Z,101006.78
2022-08-21T02:03:06.894Z,101002.47
2022-08-21T02:08:08.626Z,100994.56
2022-08-21T02:13:13.417Z,101000.84
2022-08-21T02:18:15.154Z,100999.16
2022-08-21T02:23:16.846Z,100994.69
2022-08-21T02:28:22.394Z,100995.53
2022-08-21T02:33:24.263Z,100979.84
2022-08-21T02:38:34.157Z,100982.59
2022-08-21T02:43:36.536Z,100978.38
2022-08-21T02:48:38.395Z,100976.72
2022-08-21T02:53:40.669Z,100981.19
2022-08-21T02:58:51.918Z,100975.97
2022-08-21T03:03:54.520Z,100981.25
2022-08-21T03:08:56.186Z,100976.97
2022-08-21T03:13:57.825Z,100970.91
2022-08-21T03:19:00.612Z,100977.94
2022-08-21T03:24:02.964Z,100972.75
2022-08-21T03:29:06.644Z,100984.25
2022-08-21T03:34:08.279Z,100987.88
2022-08-21T03:39:10.005Z,100979.16
2022-08-21T03:44:12.694Z,100994.09
2022-08-21T03:49:14.391Z,100989.78
2022-08-21T03:54:16.095Z,100992.47
2022-08-21T03:59:17.757Z,100990.75
2022-08-21T04:04:19.422Z,100991.59
2022-08-21T04:09:21.148Z,100996.00
2022-08-21T04:14:23.431Z,100994.31
2022-08-21T04:19:25.075Z,100997.88
2022-08-21T04:24:26.722Z,101002.25
2022-08-21T04:29:31.699Z,101002.25
2022-08-21T04:34:33.357Z,101007.50
2022-08-21T04:39:35.096Z,101012.69
2022-08-21T04:44:36.824Z,101008.28
2022-08-21T04:49:38.470Z,101012.66
2022-08-21T04:54:40.240Z,101023.94
2022-08-21T04:59:44.057Z,101022.03
2022-08-21T05:04:51.242Z,101007.97
2022-08-21T05:09:53.267Z,101013.09
2022-08-21T05:14:54.920Z,101016.56
2022-08-21T05:19:56.685Z,101012.16
2022-08-21T05:24:58.388Z,101007.75
2022-08-21T05:30:00.058Z,101028.66
2022-08-21T05:35:01.899Z,101025.91
2022-08-21T05:40:21.670Z,101020.50
2022-08-21T05:45:41.906Z,101022.31
2022-08-21T05:50:45.884Z,101022.16
2022-08-21T05:55:48.076Z,101020.28
2022-08-21T06:00:50.250Z,101019.94
2022-08-21T06:05:52.414Z,101012.59
2022-08-21T06:10:54.376Z,101022.91
2022-08-21T06:16:23.664Z,101018.28
2022-08-21T06:21:25.328Z,101009.22
2022-08-21T06:26:27.044Z,101003.69
2022-08-21T06:31:29.032Z,101011.59
2022-08-21T06:36:30.711Z,101008.31
2022-08-21T06:41:32.404Z,101003.78
2022-08-21T06:46:40.755Z,101006.94
2022-08-21T06:51:42.418Z,101008.56
2022-08-21T06:56:44.130Z,101001.13
2022-08-21T07:01:45.960Z,100994.56
2022-08-21T07:06:47.629Z,100991.69
2022-08-21T07:11:51.138Z,100993.88
2022-08-21T07:16:52.851Z,100999.66
2022-08-21T07:21:56.894Z,100995.34
2022-08-21T07:26:58.534Z,100990.75
2022-08-21T07:32:00.200Z,100992.16
2022-08-21T07:37:06.106Z,100983.78
2022-08-21T07:42:11.631Z,100967.34
2022-08-21T07:47:13.286Z,100958.19
2022-08-21T07:52:14.930Z,100960.81
2022-08-21T07:57:16.808Z,100969.47
2022-08-21T08:02:28.102Z,100978.84
2022-08-21T08:07:29.757Z,100975.69
2022-08-21T08:12:31.416Z,100978.78
2022-08-21T08:17:35.887Z,100977.34
2022-08-21T08:22:38.543Z,100971.78
2022-08-21T08:27:40.228Z,100976.91
2022-08-21T08:32:41.944Z,100967.72
2022-08-21T08:37:46.753Z,100967.63
2022-08-21T08:42:53.898Z,100963.69
2022-08-21T08:48:03.581Z,100966.34
2022-08-21T08:53:09.551Z,100965.19
2022-08-21T08:58:24.543Z,100966.63
2022-08-21T09:03:26.556Z,100961.53
2022-08-21T09:08:51.516Z,100956.63
2022-08-21T09:14:10.573Z,100963.50
2022-08-21T09:19:27.772Z,100953.66
2022-08-21T09:24:35.047Z,100957.97
2022-08-21T09:29:38.885Z,100953.56
2022-08-21T09:34:40.597Z,100954.06
2022-08-21T09:39:46.848Z,100946.94
2022-08-21T09:44:50.308Z,100938.41
2022-08-21T09:49:51.973Z,100944.78
2022-08-21T09:54:55.548Z,100940.63
2022-08-21T09:59:57.232Z,100948.97
2022-08-21T10:05:01.218Z,100947.28
2022-08-21T10:10:05.826Z,100943.84
2022-08-21T10:15:14.706Z,100935.75
2022-08-21T10:20:26.281Z,100935.28
2022-08-21T10:25:34.281Z,100936.00
2022-08-21T10:30:51.740Z,100930.94
2022-08-21T10:36:11.992Z,100911.59
2022-08-21T10:41:26.937Z,100918.03
2022-08-21T10:46:37.687Z,100914.78
2022-08-21T10:52:10.791Z,100909.69
2022-08-21T10:57:15.646Z,100908.03
2022-08-21T11:02:37.874Z,100899.97
2022-08-21T11:08:02.594Z,100896.91
2022-08-21T11:13:12.451Z,100902.06
2022-08-21T11:18:23.972Z,100894.53
2022-08-21T11:23:29.350Z,100888.09
2022-08-21T11:28:37.326Z,100893.44
2022-08-21T11:33:57.967Z,100893.75
2022-08-21T11:39:13.224Z,100880.25
2022-08-21T11:44:36.177Z,100880.94
2022-08-21T11:49:45.678Z,100879.56
2022-08-21T11:55:07.440Z,100874.94
2022-08-21T12:00:21.572Z,100875.25
2022-08-21T12:05:34.037Z,100874.56
2022-08-21T12:10:59.895Z,100871.44
2022-08-21T12:16:15.824Z,100864.50
2022-08-21T12:21:21.916Z,100862.88
2022-08-21T12:26:34.143Z,100864.66
2022-08-21T12:31:35.958Z,100862.16
2022-08-21T12:37:01.820Z,100858.22
2022-08-21T12:42:31.776Z,100853.69
2022-08-21T12:47:49.816Z,100850.41
2022-08-21T12:53:03.695Z,100854.09
2022-08-21T12:58:05.948Z,100838.00
2022-08-21T13:03:07.656Z,100846.00
2022-08-21T13:08:11.161Z,100835.88
2022-08-21T13:13:25.576Z,100838.16
2022-08-21T13:18:31.156Z,100829.41
2022-08-21T13:23:34.602Z,100829.34
2022-08-21T13:28:38.545Z,100840.75
2022-08-21T13:33:40.230Z,100839.63
2022-08-21T13:38:42.730Z,100827.22
2022-08-21T13:43:50.460Z,100834.81
2022-08-21T13:48:52.157Z,100841.78
2022-08-21T13:53:54.584Z,100828.47
2022-08-21T13:58:57.083Z,100829.75
2022-08-21T14:04:05.716Z,100827.72
2022-08-21T14:09:32.751Z,100826.63
2022-08-21T14:14:34.976Z,100846.78
2022-08-21T14:19:42.605Z,100818.03
2022-08-21T14:24:44.432Z,100817.59
2022-08-21T14:29:51.556Z,100814.56
2022-08-21T14:34:54.665Z,100821.91
2022-08-21T14:39:56.852Z,100817.81
2022-08-21T14:45:01.044Z,100822.31
2022-08-21T14:50:02.709Z,100811.34
2022-08-21T14:55:05.882Z,100816.22
2022-08-21T15:00:09.163Z,100818.69
2022-08-21T15:05:13.012Z,100822.22
2022-08-21T15:10:16.947Z,100808.59
2022-08-21T15:15:18.608Z,100813.69
2022-08-21T15:20:20.302Z,100817.97
2022-08-21T15:25:22.043Z,100822.16
2022-08-21T15:30:23.807Z,100814.94
2022-08-21T15:35:25.483Z,100811.78
2022-08-21T15:40:27.558Z,100806.31
2022-08-21T15:45:29.360Z,100809.56
2022-08-21T15:50:32.880Z,100808.28
2022-08-21T15:55:34.690Z,100818.66
2022-08-21T16:00:36.362Z,100810.50
2022-08-21T16:05:38.027Z,100810.16
2022-08-21T16:10:40.349Z,100812.47
2022-08-21T16:15:42.029Z,100816.06
2022-08-21T16:20:43.689Z,100806.50
2022-08-21T16:25:45.643Z,100817.50
2022-08-21T16:30:48.195Z,100819.16
2022-08-21T16:35:49.864Z,100813.19
2022-08-21T16:40:51.546Z,100808.78
2022-08-21T16:45:53.780Z,100805.13
2022-08-21T16:50:56.559Z,100802.09
2022-08-21T16:56:01.396Z,100803.09
2022-08-21T17:01:07.500Z,100800.06
2022-08-21T17:06:09.284Z,100797.94
2022-08-21T17:11:37.430Z,100788.22
2022-08-21T17:16:39.386Z,100803.72
2022-08-21T17:21:41.183Z,100804.09
2022-08-21T17:26:43.274Z,100806.69
2022-08-21T17:31:45.063Z,100801.31
2022-08-21T17:36:48.764Z,100804.28
2022-08-21T17:41:56.320Z,100811.06
2022-08-21T17:46:59.980Z,100805.53
2022-08-21T17:52:01.638Z,100810.31
2022-08-21T17:57:03.600Z,100808.41
2022-08-21T18:02:12.569Z,100803.50
2022-08-21T18:07:25.313Z,100812.25
2022-08-21T18:12:34.259Z,100814.22
2022-08-21T18:17:37.108Z,100811.72
2022-08-21T18:22:38.770Z,100820.78
2022-08-21T18:27:42.573Z,100827.66
2022-08-21T18:32:44.713Z,100830.56
2022-08-21T18:37:46.469Z,100835.03
2022-08-21T18:42:55.702Z,100834.53
2022-08-21T18:48:01.906Z,100846.31
2022-08-21T18:53:07.986Z,100847.47
2022-08-21T18:58:25.573Z,100854.75
2022-08-21T19:03:27.296Z,100861.41
2022-08-21T19:08:28.961Z,100854.50
2022-08-21T19:13:31.777Z,100861.59
2022-08-21T19:18:35.433Z,100868.84
2022-08-21T19:23:37.198Z,100865.63
2022-08-21T19:28:49.926Z,100874.66
2022-08-21T19:34:04.767Z,100878.44
2022-08-21T19:39:08.333Z,100883.94
2022-08-21T19:44:10.484Z,100885.53
2022-08-21T19:49:15.501Z,100881.75
2022-08-21T19:54:28.163Z,100885.03
2022-08-21T19:59:31.408Z,100891.84
2022-08-21T20:04:33.107Z,100884.34
2022-08-21T20:09:36.236Z,100898.16
2022-08-21T20:14:41.432Z,100899.69
2022-08-21T20:19:43.551Z,100897.84
2022-08-21T20:24:46.602Z,100899.19
2022-08-21T20:29:48.316Z,100899.84
2022-08-21T20:34:53.783Z,100900.50
2022-08-21T20:39:57.077Z,100905.25
2022-08-21T20:44:59.091Z,100902.19
2022-08-21T20:50:13.020Z,100901.59
2022-08-21T20:55:16.045Z,100905.38
2022-08-21T21:00:19.618Z,100913.72
2022-08-21T21:05:28.026Z,100917.72
2022-08-21T21:11:02.725Z,100917.25
2022-08-21T21:16:14.199Z,100912.41
2022-08-21T21:21:24.598Z,100910.78
2022-08-21T21:26:46.260Z,100911.81
2022-08-21T21:31:53.773Z,100917.78
2022-08-21T21:37:42.521Z,100913.66
2022-08-21T21:42:49.298Z,100928.28
2022-08-21T21:48:00.591Z,100926.25
2022-08-21T21:53:24.710Z,100926.38
2022-08-21T21:58:36.100Z,100924.78
2022-08-21T22:04:04.339Z,100931.94
2022-08-21T22:09:13.938Z,100936.44
2022-08-21T22:14:16.970Z,100941.91
2022-08-21T22:19:28.088Z,100939.56
2022-08-21T22:24:35.354Z,100936.31
2022-08-21T22:29:54.167Z,100934.63
2022-08-21T22:35:23.616Z,100938.47
2022-08-21T22:40:35.019Z,100941.47
2022-08-21T22:46:04.122Z,100940.00
2022-08-21T22:51:11.516Z,100935.94
2022-08-21T22:56:32.614Z,100944.00
2022-08-21T23:01:40.212Z,100941.41
2022-08-21T23:06:49.230Z,100959.56
2022-08-21T23:11:55.528Z,100961.50
2022-08-21T23:17:03.236Z,100958.06
2022-08-21T23:22:28.828Z,100954.50
2022-08-21T23:27:56.091Z,100952.53
2022-08-21T23:33:09.912Z,100949.81
2022-08-21T23:38:19.846Z,100948.06
2022-08-21T23:43:44.207Z,100949.91
2022-08-21T23:48:55.569Z,100955.22
2022-08-21T23:54:40.640Z,100959.72
2022-08-21T23:59:49.980Z,100965.03
